Schedule Details


Flight Number: CTN632
Departure: Zemunik (LDZD) at 22:25
Arrival: Pula (LDPL) at 23:00
Route: EBITA N606 LOS

Weather Information
LDZD 221630Z 15010KT 9999 FEW040 21/13 Q1017 NOSIG
LDPL 221630Z 14005KT 100V180 9999 SCT015 BKN022 20/17 Q1016 NOSIG
Schedule Frequency

Route Map